Sandy, OR (97055)

4:59 PM PST on December 02, 2016 (GMT -0800)
Sandy City Center | | Change Station

Elev 948 ft 45.40 °N, 122.27 °W | Updated 37 seconds ago

Overcast
Overcast
44.6 °F
Feels Like 45 °F
N
0.0
Wind Variable Wind from SSE

Today
High -- | Low -- °F
--% Chance of Precip.
Yesterday
High -- | Low -- °F
Precip. -- in
Pressure 30.26 in
Visibility 10.0 miles
Clouds Overcast 3300 ft
Windchill 45 °F
Dew Point 43 °F
Humidity 96%
Rainfall 0.05 in
Snow Depth Not available.
7:30 AM 4:27 PM
Waxing Crescent, 11% visible
METAR KTTD 030053Z AUTO 17003KT 10SM OVC033 09/05 A3026 RMK AO2 SLP245 T00890050
Pressure 30.26 in
Visibility 10.0 miles
Clouds Overcast 3300 ft
Windchill 45 °F
Dew Point 43 °F
Humidity 96%
Rainfall 0.05 in
Snow Depth Not available.
7:30 AM 4:27 PM
Waxing Crescent, 11% visible
METAR KTTD 030053Z AUTO 17003KT 10SM OVC033 09/05 A3026 RMK AO2 SLP245 T00890050

10-Day Weather Forecast

Almanac

Astronomy

Dec. 02, 2016 Rise Set
Actual Time
Civil Twilight
Nautical Twilight
Astronomical Twilight
Moon
Length of Visible Light
Length of Day
Tomorrow will be .
, % of the Moon is Illuminated

Today's Extremes

State Highs State Lows

Community

WunderPhotos

Upload Photos

1,955,381 photos uploaded!

WunderBlog® & News

Nearby

Air Quality

  Air Quality AQ Index Pollutant
Not available.

Snow Depth

Station Depth Elevation

Earthquake Activity

City Distance Mag. Time & Date
Minimum magnitude displayed is 2.5.

Coastal Water Temperatures

Place Temperature

Stations

Nearby Weather Stations

Station Location Temp. Windchill Dew Point Humidity Wind Precip. Elev Updated Type
                   

Watches & Warnings

There are currently no watches in effect.